sensor_id;sensor_type;location;lat;lon;timestamp;temperature;humidity
37790;DHT22;23628;51.434;6.988;2022-07-04T04:49:51;17.60;99.90
37790;DHT22;23628;51.434;6.988;2022-07-04T04:57:31;17.60;99.90
37790;DHT22;23628;51.434;6.988;2022-07-04T05:03:06;17.70;99.90
37790;DHT22;23628;51.434;6.988;2022-07-04T05:05:45;17.70;99.90
37790;DHT22;23628;51.434;6.988;2022-07-04T05:08:16;17.80;99.90
37790;DHT22;23628;51.434;6.988;2022-07-04T05:33:20;18.40;99.90
37790;DHT22;23628;51.434;6.988;2022-07-04T05:43:11;18.60;99.90
37790;DHT22;23628;51.434;6.988;2022-07-04T05:48:06;18.70;99.90
37790;DHT22;23628;51.434;6.988;2022-07-04T05:50:34;18.70;99.90
37790;DHT22;23628;51.434;6.988;2022-07-04T05:55:29;18.80;99.90
37790;DHT22;23628;51.434;6.988;2022-07-04T05:57:57;18.90;99.90
37790;DHT22;23628;51.434;6.988;2022-07-04T06:00:24;18.20;99.90
37790;DHT22;23628;51.434;6.988;2022-07-04T06:05:29;19.10;99.90
37790;DHT22;23628;51.434;6.988;2022-07-04T06:07:56;19.10;99.90
37790;DHT22;23628;51.434;6.988;2022-07-04T06:10:23;18.90;99.90
37790;DHT22;23628;51.434;6.988;2022-07-04T06:12:50;19.20;99.90
37790;DHT22;23628;51.434;6.988;2022-07-04T06:17:44;19.30;99.90
37790;DHT22;23628;51.434;6.988;2022-07-04T06:20:12;19.30;99.90
37790;DHT22;23628;51.434;6.988;2022-07-04T06:22:41;19.40;99.90
37790;DHT22;23628;51.434;6.988;2022-07-04T06:25:16;19.40;99.90
37790;DHT22;23628;51.434;6.988;2022-07-04T06:27:45;19.40;99.90
37790;DHT22;23628;51.434;6.988;2022-07-04T06:32:55;19.50;99.90
37790;DHT22;23628;51.434;6.988;2022-07-04T06:38:19;19.60;99.90
37790;DHT22;23628;51.434;6.988;2022-07-04T06:45:58;19.70;99.90
37790;DHT22;23628;51.434;6.988;2022-07-04T06:48:26;19.70;99.90
37790;DHT22;23628;51.434;6.988;2022-07-04T06:58:16;19.90;99.90
37790;DHT22;23628;51.434;6.988;2022-07-04T07:00:43;19.90;99.90
37790;DHT22;23628;51.434;6.988;2022-07-04T07:08:30;20.10;99.90
37790;DHT22;23628;51.434;6.988;2022-07-04T07:15:54;20.20;99.90
37790;DHT22;23628;51.434;6.988;2022-07-04T07:18:23;20.30;99.90
37790;DHT22;23628;51.434;6.988;2022-07-04T07:25:52;20.40;99.90
37790;DHT22;23628;51.434;6.988;2022-07-04T07:33:21;20.60;99.90
37790;DHT22;23628;51.434;6.988;2022-07-04T07:35:48;20.60;99.90
37790;DHT22;23628;51.434;6.988;2022-07-04T07:40:51;20.80;99.90
37790;DHT22;23628;51.434;6.988;2022-07-04T07:43:18;20.80;99.90
37790;DHT22;23628;51.434;6.988;2022-07-04T07:45:46;20.80;99.90
37790;DHT22;23628;51.434;6.988;2022-07-04T07:55:58;21.10;99.90
37790;DHT22;23628;51.434;6.988;2022-07-04T08:00:52;21.20;99.90
37790;DHT22;23628;51.434;6.988;2022-07-04T08:03:22;21.30;99.90
37790;DHT22;23628;51.434;6.988;2022-07-04T08:08:44;21.40;99.90
37790;DHT22;23628;51.434;6.988;2022-07-04T08:11:12;21.50;99.90
37790;DHT22;23628;51.434;6.988;2022-07-04T08:23:54;24.60;99.90
37790;DHT22;23628;51.434;6.988;2022-07-04T08:29:19;22.20;99.90
37790;DHT22;23628;51.434;6.988;2022-07-04T08:31:47;22.40;99.90
37790;DHT22;23628;51.434;6.988;2022-07-04T08:34:17;22.40;99.90
